Time;durP1;ratioP1;P1;durP2;ratioP2;P2;SDS_P1;SDS_P2;PMS_P1;PMS_P2;Temp;Humidity;BMP_temperature;BMP_pressure;BME280_temperature;BME280_humidity;BME280_pressure;Samples;Min_cycle;Max_cycle;Signal;HPM_P1;HPM_P2
2022/12/04 00:01:20;;;;;;;23.13;16.13;;;5.70;91.50;;;;;;5022432;28;20458;-77
2022/12/04 00:03:46;;;;;;;26.27;15.70;;;5.70;91.50;;;;;;5022630;28;20474;-77
2022/12/04 00:06:15;;;;;;;23.03;14.53;;;5.70;91.50;;;;;;5021801;28;20909;-77
2022/12/04 00:08:43;;;;;;;24.83;16.47;;;5.70;91.50;;;;;;5021253;28;20913;-77
2022/12/04 00:11:11;;;;;;;24.10;16.40;;;5.60;91.50;;;;;;5021044;28;20457;-75
2022/12/04 00:13:38;;;;;;;26.07;16.60;;;5.60;91.60;;;;;;5020696;28;20471;-76
2022/12/04 00:16:08;;;;;;;25.27;15.03;;;5.60;91.60;;;;;;5021535;28;20453;-75
2022/12/04 00:18:35;;;;;;;23.73;15.73;;;5.60;91.50;;;;;;5023867;28;20458;-75
2022/12/04 00:21:04;;;;;;;25.90;16.70;;;5.70;91.60;;;;;;5023359;28;20480;-75
2022/12/04 00:23:30;;;;;;;26.47;15.80;;;5.60;91.60;;;;;;5023194;28;20484;-76
2022/12/04 00:26:00;;;;;;;23.30;15.60;;;5.70;91.60;;;;;;5022737;28;20458;-75
2022/12/04 00:28:27;;;;;;;24.37;15.20;;;5.60;91.50;;;;;;5022350;28;20448;-76
2022/12/04 00:30:54;;;;;;;27.87;17.77;;;5.70;91.60;;;;;;5022029;28;20501;-75
2022/12/04 00:33:22;;;;;;;25.07;17.17;;;5.70;91.50;;;;;;5021819;28;20469;-75
2022/12/04 00:35:57;;;;;;;23.77;15.73;;;5.70;91.50;;;;;;5022362;28;20466;-75
2022/12/04 00:38:23;;;;;;;26.80;16.53;;;5.70;91.40;;;;;;5022206;28;20541;-75
2022/12/04 00:40:51;;;;;;;22.80;15.30;;;5.60;91.40;;;;;;5020833;28;20964;-75
2022/12/04 00:43:17;;;;;;;24.23;16.53;;;5.60;91.40;;;;;;5020078;28;20478;-75
2022/12/04 00:45:44;;;;;;;25.17;15.80;;;5.60;91.50;;;;;;5019936;28;20446;-75
2022/12/04 00:48:11;;;;;;;21.30;15.10;;;5.60;91.40;;;;;;5020476;28;20442;-75
2022/12/04 00:50:39;;;;;;;25.00;16.93;;;5.60;91.40;;;;;;5020809;28;20447;-75
2022/12/04 00:53:06;;;;;;;22.73;14.53;;;5.60;91.40;;;;;;5020036;28;20449;-76
2022/12/04 00:55:33;;;;;;;24.77;15.20;;;5.60;91.50;;;;;;5019579;28;20869;-75
2022/12/04 00:58:00;;;;;;;23.10;14.53;;;5.50;91.60;;;;;;5018904;28;20912;-75
2022/12/04 01:00:26;;;;;;;25.33;15.77;;;5.60;91.70;;;;;;5019018;28;20454;-75
2022/12/04 01:02:53;;;;;;;28.87;16.53;;;5.50;91.70;;;;;;5018887;28;20455;-75
2022/12/04 01:05:20;;;;;;;22.77;15.07;;;5.60;91.70;;;;;;5018342;28;20467;-76
2022/12/04 01:07:48;;;;;;;26.07;15.40;;;5.60;91.70;;;;;;5018161;28;20461;-75
2022/12/04 01:10:15;;;;;;;22.60;16.00;;;5.60;91.70;;;;;;5017662;28;20447;-75
2022/12/04 01:12:41;;;;;;;21.63;14.37;;;5.50;91.70;;;;;;5020407;28;20478;-75
2022/12/04 01:15:09;;;;;;;23.97;16.37;;;5.60;91.60;;;;;;5018331;28;20480;-75
2022/12/04 01:17:36;;;;;;;25.73;16.10;;;5.60;91.70;;;;;;5017048;28;20488;-75
2022/12/04 01:20:04;;;;;;;27.70;15.40;;;5.60;91.70;;;;;;5016801;28;20440;-75
2022/12/04 01:22:31;;;;;;;21.50;15.30;;;5.60;91.70;;;;;;5017706;28;20445;-75
2022/12/04 01:24:59;;;;;;;24.10;15.10;;;5.60;91.60;;;;;;5016743;28;20982;-75
2022/12/04 01:27:26;;;;;;;27.07;16.87;;;5.60;91.70;;;;;;5017138;28;20429;-76
2022/12/04 01:29:53;;;;;;;25.47;16.13;;;5.60;91.70;;;;;;5015969;28;20442;-75
2022/12/04 01:32:20;;;;;;;28.00;17.20;;;5.50;91.60;;;;;;5017615;28;20480;-75
2022/12/04 01:34:46;;;;;;;25.80;15.90;;;5.50;91.60;;;;;;5016937;28;20473;-74
2022/12/04 01:37:13;;;;;;;24.90;16.20;;;5.60;91.60;;;;;;5016933;28;20850;-74
2022/12/04 01:39:40;;;;;;;24.20;15.70;;;5.50;91.60;;;;;;5017041;28;20541;-75
2022/12/04 01:42:11;;;;;;;26.10;15.90;;;5.50;91.60;;;;;;5017069;28;20964;-74
2022/12/04 01:44:42;;;;;;;25.67;16.70;;;5.50;91.70;;;;;;5016594;28;20470;-74
2022/12/04 01:47:10;;;;;;;21.80;15.97;;;5.50;91.80;;;;;;5017033;28;20433;-75
2022/12/04 01:49:41;;;;;;;25.57;15.20;;;5.50;91.80;;;;;;5016514;28;20435;-75
2022/12/04 01:52:12;;;;;;;25.77;17.13;;;5.50;91.80;;;;;;5016635;28;20444;-75
2022/12/04 01:54:43;;;;;;;26.67;17.73;;;5.50;91.80;;;;;;5016980;28;20482;-75
2022/12/04 01:57:16;;;;;;;27.57;17.33;;;5.50;91.70;;;;;;5016380;28;20477;-75
2022/12/04 01:59:47;;;;;;;24.80;16.30;;;5.50;91.80;;;;;;5015907;28;20903;-75
2022/12/04 02:02:16;;;;;;;27.53;17.87;;;5.50;91.80;;;;;;5016224;28;20433;-75
2022/12/04 02:04:44;;;;;;;24.33;15.70;;;5.50;91.90;;;;;;5016265;28;20478;-76
2022/12/04 02:07:11;;;;;;;27.13;18.00;;;5.50;91.80;;;;;;5020325;28;20453;-75
2022/12/04 02:09:40;;;;;;;27.77;18.10;;;5.50;91.80;;;;;;5016549;28;20910;-75
2022/12/04 02:12:18;;;;;;;28.00;18.20;;;5.50;91.70;;;;;;5015308;28;20950;-75
2022/12/04 02:14:55;;;;;;;26.93;17.33;;;5.50;91.80;;;;;;5015752;28;20998;-75
2022/12/04 02:17:27;;;;;;;29.20;18.70;;;5.50;91.80;;;;;;5015998;28;20468;-75
2022/12/04 02:20:09;;;;;;;25.10;15.87;;;5.60;91.90;;;;;;5015250;28;20433;-75
2022/12/04 02:23:05;;;;;;;26.23;18.07;;;5.50;91.80;;;;;;5015678;28;20953;-75
2022/12/04 02:25:40;;;;;;;27.07;16.90;;;5.50;91.90;;;;;;5015755;28;20477;-75
2022/12/04 02:28:22;;;;;;;29.43;17.90;;;5.50;92.00;;;;;;5015354;28;20964;-75
2022/12/04 02:30:53;;;;;;;28.70;16.50;;;5.50;92.00;;;;;;5015827;28;20827;-75
2022/12/04 02:33:23;;;;;;;27.23;17.10;;;5.50;92.00;;;;;;5015798;28;20477;-75
2022/12/04 02:35:55;;;;;;;29.10;18.67;;;5.50;92.00;;;;;;5015508;28;20449;-75
2022/12/04 02:38:26;;;;;;;27.03;15.93;;;5.50;92.00;;;;;;5014819;28;20470;-75
2022/12/04 02:40:59;;;;;;;27.67;17.20;;;5.50;91.90;;;;;;5014449;28;20438;-75
2022/12/04 02:43:32;;;;;;;26.67;17.50;;;5.50;92.00;;;;;;5014821;28;20931;-75
2022/12/04 02:46:03;;;;;;;27.03;17.03;;;5.60;91.90;;;;;;5016131;28;20433;-76
2022/12/04 02:48:33;;;;;;;29.07;18.07;;;5.50;91.80;;;;;;5016020;28;20447;-75
2022/12/04 02:51:01;;;;;;;29.53;18.80;;;5.50;91.90;;;;;;5014915;28;20456;-75
2022/12/04 02:53:33;;;;;;;29.00;17.53;;;5.50;91.90;;;;;;5014767;28;20500;-75
2022/12/04 02:56:03;;;;;;;36.20;19.63;;;5.60;91.90;;;;;;5015173;28;20443;-75
2022/12/04 02:58:34;;;;;;;29.20;17.17;;;5.50;91.90;;;;;;5015035;28;20470;-75
2022/12/04 03:01:18;;;;;;;27.97;18.20;;;5.50;91.80;;;;;;5014685;28;20446;-75
2022/12/04 03:03:49;;;;;;;26.13;17.50;;;5.60;91.90;;;;;;5014344;28;20473;-75
2022/12/04 03:06:19;;;;;;;27.90;17.40;;;5.60;91.90;;;;;;5014934;28;20446;-75
2022/12/04 03:08:50;;;;;;;30.63;18.50;;;5.60;91.80;;;;;;5015669;28;20527;-76
2022/12/04 03:11:17;;;;;;;27.93;17.53;;;5.60;91.80;;;;;;5014630;28;20851;-75
2022/12/04 03:13:49;;;;;;;28.47;17.97;;;5.50;92.10;;;;;;5014522;28;20499;-75
2022/12/04 03:16:19;;;;;;;31.90;18.97;;;5.40;91.90;;;;;;5014644;28;20436;-75
2022/12/04 03:18:50;;;;;;;30.57;17.97;;;5.50;92.00;;;;;;5013953;28;21001;-75
2022/12/04 03:21:19;;;;;;;32.67;19.27;;;5.50;92.00;;;;;;5013963;28;20508;-76
2022/12/04 03:23:50;;;;;;;28.70;17.23;;;5.50;91.90;;;;;;5013964;28;21011;-75
2022/12/04 03:26:24;;;;;;;29.50;17.27;;;5.50;91.90;;;;;;5014152;28;20462;-75
2022/12/04 03:28:57;;;;;;;29.63;17.70;;;5.50;91.80;;;;;;5014608;28;20449;-75
2022/12/04 03:31:31;;;;;;;30.43;18.00;;;5.50;91.80;;;;;;5014272;28;20444;-75
2022/12/04 03:34:02;;;;;;;29.63;18.07;;;5.60;91.90;;;;;;5014123;28;20477;-75
2022/12/04 03:36:34;;;;;;;26.23;16.40;;;5.50;91.90;;;;;;5014519;28;20430;-75
2022/12/04 03:39:11;;;;;;;29.57;17.23;;;5.50;91.90;;;;;;5013660;28;20936;-75
2022/12/04 03:41:52;;;;;;;30.23;17.20;;;5.50;92.10;;;;;;5014181;28;20441;-75
2022/12/04 03:44:24;;;;;;;30.23;17.10;;;5.50;91.90;;;;;;5014009;28;20470;-75
2022/12/04 03:46:56;;;;;;;30.47;17.50;;;5.50;91.90;;;;;;5014108;28;20439;-75
2022/12/04 03:49:30;;;;;;;27.57;17.87;;;5.50;91.90;;;;;;5013805;28;20503;-76
2022/12/04 03:52:00;;;;;;;31.00;18.17;;;5.50;92.00;;;;;;5013655;28;20512;-75
2022/12/04 03:54:30;;;;;;;29.13;17.40;;;5.50;91.90;;;;;;5013960;28;20477;-75
2022/12/04 03:57:02;;;;;;;31.73;18.50;;;5.50;91.90;;;;;;5013965;28;20445;-75
2022/12/04 03:59:37;;;;;;;27.83;17.50;;;5.40;92.00;;;;;;5013738;28;20425;-75
2022/12/04 04:02:05;;;;;;;29.97;18.20;;;5.40;92.00;;;;;;5014621;28;20433;-75
2022/12/04 04:04:35;;;;;;;28.77;17.47;;;5.40;92.00;;;;;;5013591;28;20466;-75
2022/12/04 04:07:09;;;;;;;29.90;17.80;;;5.50;92.10;;;;;;5013780;28;20434;-75
2022/12/04 04:09:40;;;;;;;28.30;18.20;;;5.50;92.00;;;;;;5013418;28;20433;-75
2022/12/04 04:12:10;;;;;;;27.40;16.93;;;5.50;92.00;;;;;;5013471;28;20916;-75
2022/12/04 04:25:53;;;;;;;30.00;17.97;;;5.40;92.00;;;;;;5013342;28;20545;-75
2022/12/04 04:28:32;;;;;;;29.77;18.20;;;5.40;92.00;;;;;;5013499;28;20488;-76
2022/12/04 04:31:12;;;;;;;28.30;17.03;;;5.40;92.30;;;;;;5013420;28;20819;-76
2022/12/04 04:33:47;;;;;;;32.47;19.00;;;5.40;92.00;;;;;;5013396;28;20477;-76
2022/12/04 04:36:21;;;;;;;29.83;18.07;;;5.40;92.20;;;;;;5013948;28;20448;-75
2022/12/04 04:38:56;;;;;;;30.53;17.80;;;5.30;92.20;;;;;;5013915;28;20472;-75
2022/12/04 04:41:29;;;;;;;26.23;17.23;;;5.40;92.30;;;;;;5014061;28;20440;-75
2022/12/04 04:44:03;;;;;;;31.80;18.97;;;5.30;92.20;;;;;;5013791;28;20469;-75
2022/12/04 04:46:33;;;;;;;30.77;18.73;;;5.30;92.20;;;;;;5014204;28;20444;-75
2022/12/04 04:49:03;;;;;;;25.83;17.53;;;5.30;92.10;;;;;;5013529;28;20442;-75
2022/12/04 04:51:33;;;;;;;29.87;17.97;;;5.40;92.20;;;;;;5014486;28;20767;-75
2022/12/04 04:54:04;;;;;;;30.50;18.23;;;5.40;92.00;;;;;;5013322;28;20476;-75
2022/12/04 04:56:31;;;;;;;26.73;17.87;;;5.30;92.10;;;;;;5013109;28;20444;-75
2022/12/04 04:58:57;;;;;;;27.53;16.83;;;5.30;92.10;;;;;;5013186;28;20488;-75
2022/12/04 05:01:27;;;;;;;29.77;16.63;;;5.40;92.10;;;;;;5013155;28;20438;-75
2022/12/04 05:03:55;;;;;;;29.03;16.90;;;5.30;92.10;;;;;;5015761;28;20470;-74
2022/12/04 05:06:22;;;;;;;29.03;18.53;;;5.40;92.10;;;;;;5016559;28;20457;-75
2022/12/04 05:08:50;;;;;;;27.07;17.77;;;5.30;92.00;;;;;;5016550;28;20453;-74
2022/12/04 05:11:17;;;;;;;30.63;16.80;;;5.30;92.20;;;;;;5016921;28;20451;-75
2022/12/04 05:13:44;;;;;;;28.50;17.40;;;5.30;92.20;;;;;;5016295;28;20840;-74
2022/12/04 05:16:13;;;;;;;28.30;18.00;;;5.30;92.50;;;;;;5016442;28;20449;-75
2022/12/04 05:18:40;;;;;;;32.00;18.97;;;5.30;92.30;;;;;;5016435;28;20889;-76
2022/12/04 05:21:08;;;;;;;28.20;18.80;;;5.30;92.10;;;;;;5016293;28;20440;-75
2022/12/04 05:23:35;;;;;;;25.07;16.40;;;5.40;92.10;;;;;;5016338;28;20472;-75
2022/12/04 05:26:04;;;;;;;27.37;17.13;;;5.30;92.00;;;;;;5016140;28;20472;-76
2022/12/04 05:28:31;;;;;;;28.10;16.90;;;5.30;92.10;;;;;;5015906;28;21071;-75
2022/12/04 05:30:58;;;;;;;26.63;16.90;;;5.20;92.20;;;;;;5016166;28;20445;-75
2022/12/04 05:33:25;;;;;;;26.60;17.00;;;5.20;92.20;;;;;;5016091;28;20474;-75
2022/12/04 05:35:59;;;;;;;29.43;17.40;;;5.30;92.20;;;;;;5016088;28;20454;-75
2022/12/04 05:38:27;;;;;;;24.50;16.10;;;5.30;92.20;;;;;;5015927;28;20492;-75
2022/12/04 05:40:53;;;;;;;28.10;17.00;;;5.20;92.10;;;;;;5015632;28;20942;-75
2022/12/04 05:43:20;;;;;;;24.30;15.50;;;5.20;92.20;;;;;;5015801;28;20541;-75
2022/12/04 05:45:47;;;;;;;28.27;16.80;;;5.20;92.10;;;;;;5015655;28;20941;-75
2022/12/04 05:48:14;;;;;;;29.00;17.87;;;5.10;92.10;;;;;;5015747;28;20458;-75
2022/12/04 05:50:40;;;;;;;32.40;18.70;;;5.10;92.20;;;;;;5016246;28;20464;-75
2022/12/04 05:53:07;;;;;;;26.80;16.00;;;5.10;92.30;;;;;;5015730;28;20435;-75
2022/12/04 05:55:35;;;;;;;27.27;17.70;;;5.10;92.40;;;;;;5015393;28;20817;-75
2022/12/04 05:58:02;;;;;;;27.97;16.23;;;5.10;92.30;;;;;;5015457;28;20491;-75
2022/12/04 06:00:29;;;;;;;25.97;16.80;;;5.20;92.30;;;;;;5015481;28;20458;-75
2022/12/04 06:02:56;;;;;;;27.57;16.40;;;5.10;92.20;;;;;;5015377;28;20459;-75
2022/12/04 06:05:23;;;;;;;26.33;16.83;;;5.10;92.30;;;;;;5015056;28;21004;-75
2022/12/04 06:07:49;;;;;;;24.10;14.80;;;5.20;92.20;;;;;;5015472;28;20458;-76
2022/12/04 06:10:16;;;;;;;27.60;16.63;;;5.10;92.20;;;;;;5015004;28;20926;-75
2022/12/04 06:12:44;;;;;;;31.27;17.70;;;5.10;92.20;;;;;;5015247;28;20543;-75
2022/12/04 06:15:11;;;;;;;29.07;17.30;;;5.10;92.20;;;;;;5015147;28;20552;-76
2022/12/04 06:17:38;;;;;;;26.90;16.33;;;5.20;92.30;;;;;;5015110;28;20460;-75
2022/12/04 06:20:06;;;;;;;25.17;15.93;;;5.20;92.20;;;;;;5015049;28;20485;-76
2022/12/04 06:22:33;;;;;;;26.87;16.90;;;5.10;92.20;;;;;;5013915;28;20856;-75
2022/12/04 06:25:01;;;;;;;25.37;16.63;;;5.10;92.20;;;;;;5014842;28;20479;-75
2022/12/04 06:27:28;;;;;;;24.47;15.80;;;5.10;92.00;;;;;;5014754;28;20449;-75
2022/12/04 06:29:56;;;;;;;23.10;14.43;;;5.10;92.00;;;;;;5014637;28;20939;-76
2022/12/04 06:32:23;;;;;;;25.30;15.37;;;5.00;92.10;;;;;;5014878;28;20473;-75
2022/12/04 06:34:51;;;;;;;23.60;14.80;;;5.00;92.20;;;;;;5014579;28;20474;-75
2022/12/04 06:37:18;;;;;;;22.93;13.83;;;5.00;92.20;;;;;;5014900;28;20481;-75
2022/12/04 06:39:45;;;;;;;22.80;14.97;;;5.00;92.30;;;;;;5014452;28;21118;-76
2022/12/04 06:42:12;;;;;;;23.33;14.53;;;5.10;92.20;;;;;;5014842;28;20796;-75
2022/12/04 06:44:38;;;;;;;20.67;12.93;;;5.00;92.10;;;;;;5014640;28;20484;-76
2022/12/04 06:47:06;;;;;;;22.20;14.37;;;5.00;91.90;;;;;;5014653;28;20460;-75
2022/12/04 06:49:33;;;;;;;20.20;13.80;;;5.00;91.80;;;;;;5014652;28;20839;-76
2022/12/04 06:52:00;;;;;;;22.57;14.70;;;5.00;91.90;;;;;;5014609;28;20448;-76
2022/12/04 06:54:26;;;;;;;22.23;14.30;;;5.00;91.90;;;;;;5014659;28;20469;-76
2022/12/04 06:56:53;;;;;;;23.23;13.70;;;5.00;92.00;;;;;;5014660;28;20452;-75
2022/12/04 06:59:20;;;;;;;21.70;14.10;;;5.00;91.90;;;;;;5014078;28;20897;-75
2022/12/04 07:01:46;;;;;;;21.70;14.43;;;5.00;91.90;;;;;;5014157;28;20452;-75
2022/12/04 07:04:15;;;;;;;18.13;12.57;;;4.90;91.80;;;;;;5014282;28;20474;-75
2022/12/04 07:06:41;;;;;;;21.60;13.93;;;5.00;91.80;;;;;;5014206;28;20436;-75
2022/12/04 07:09:10;;;;;;;20.20;13.80;;;5.00;91.80;;;;;;5014154;28;20453;-75
2022/12/04 07:11:38;;;;;;;18.37;11.77;;;5.00;91.80;;;;;;5014520;28;20448;-76
2022/12/04 07:14:05;;;;;;;19.00;12.23;;;5.00;91.70;;;;;;5013835;28;21003;-76
2022/12/04 07:16:32;;;;;;;15.23;11.10;;;5.00;91.50;;;;;;5014270;28;20447;-75
2022/12/04 07:18:59;;;;;;;15.57;10.77;;;5.00;91.40;;;;;;5014095;28;20491;-75
2022/12/04 07:21:29;;;;;;;18.90;10.93;;;5.00;91.10;;;;;;5013840;28;20813;-75
2022/12/04 07:23:58;;;;;;;15.17;10.50;;;5.00;91.10;;;;;;5014025;28;20468;-75
2022/12/04 07:26:26;;;;;;;13.67;9.90;;;5.00;91.10;;;;;;5013243;28;20460;-75
2022/12/04 07:28:54;;;;;;;13.77;9.07;;;5.00;91.10;;;;;;5014026;28;20433;-75
2022/12/04 07:31:22;;;;;;;10.60;7.87;;;5.00;91.10;;;;;;5013948;28;20463;-75
2022/12/04 07:33:49;;;;;;;12.97;9.40;;;5.00;90.90;;;;;;5013859;28;20476;-75
2022/12/04 07:36:18;;;;;;;13.37;9.20;;;5.10;90.70;;;;;;5013904;28;20442;-75
2022/12/04 07:38:47;;;;;;;16.23;10.83;;;5.10;90.70;;;;;;5013991;28;20520;-75
2022/12/04 07:41:14;;;;;;;16.50;10.70;;;5.10;90.80;;;;;;5013957;28;20451;-75
2022/12/04 07:43:42;;;;;;;16.43;10.33;;;5.10;90.70;;;;;;5013729;28;20551;-75
2022/12/04 07:46:11;;;;;;;15.97;10.70;;;5.10;90.70;;;;;;5013944;28;20450;-76
2022/12/04 07:48:38;;;;;;;17.60;11.67;;;5.10;90.80;;;;;;5013854;28;20433;-76
2022/12/04 07:51:06;;;;;;;18.03;11.10;;;5.20;90.80;;;;;;5014142;28;20796;-75
2022/12/04 07:53:34;;;;;;;18.93;12.10;;;5.20;90.90;;;;;;5013633;28;20471;-76
2022/12/04 07:56:02;;;;;;;19.10;12.50;;;5.20;90.80;;;;;;5014145;28;20485;-76
2022/12/04 07:58:29;;;;;;;19.50;12.47;;;5.20;90.70;;;;;;5014034;28;20458;-76
2022/12/04 08:01:04;;;;;;;19.60;12.10;;;5.20;90.60;;;;;;5013783;28;20438;-76
2022/12/04 08:03:30;;;;;;;17.10;10.33;;;5.30;90.70;;;;;;5013894;28;20482;-76
2022/12/04 08:05:59;;;;;;;16.87;11.20;;;5.30;90.70;;;;;;5013320;28;20978;-76
2022/12/04 08:08:26;;;;;;;19.40;12.27;;;5.20;90.80;;;;;;5013657;28;20441;-76
2022/12/04 08:10:53;;;;;;;13.67;9.17;;;5.20;90.70;;;;;;5013573;28;20455;-77
2022/12/04 08:13:21;;;;;;;16.33;11.27;;;5.30;90.80;;;;;;5013191;28;20977;-76
2022/12/04 08:15:48;;;;;;;17.93;11.93;;;5.20;90.80;;;;;;5013565;28;20525;-77
2022/12/04 08:18:14;;;;;;;17.63;11.20;;;5.20;90.90;;;;;;5013800;28;20478;-77
2022/12/04 08:20:41;;;;;;;17.33;11.33;;;5.30;90.90;;;;;;5014061;28;20488;-76
2022/12/04 08:23:08;;;;;;;20.33;10.97;;;5.30;90.70;;;;;;5013530;28;20461;-76
2022/12/04 08:25:37;;;;;;;15.40;11.60;;;5.30;90.50;;;;;;5013589;28;20470;-76
2022/12/04 08:28:04;;;;;;;17.70;11.67;;;5.30;90.20;;;;;;5013438;28;20465;-76
2022/12/04 08:30:32;;;;;;;16.37;11.23;;;5.30;90.10;;;;;;5013301;28;20458;-76
2022/12/04 08:32:59;;;;;;;19.77;11.50;;;5.30;90.20;;;;;;5013172;28;20811;-75
2022/12/04 08:35:26;;;;;;;16.07;10.97;;;5.20;90.30;;;;;;5013394;28;20786;-75
2022/12/04 08:37:53;;;;;;;20.27;12.70;;;5.20;90.20;;;;;;5013594;28;20440;-75
2022/12/04 08:40:19;;;;;;;17.20;10.67;;;5.20;90.20;;;;;;5017085;28;20495;-75
2022/12/04 08:42:46;;;;;;;18.43;12.70;;;5.20;90.40;;;;;;5017123;28;20446;-75
2022/12/04 08:45:14;;;;;;;20.23;11.90;;;4.40;90.20;;;;;;5017398;28;20840;-76
2022/12/04 08:47:42;;;;;;;16.93;12.10;;;4.20;91.40;;;;;;5017433;28;20453;-75
2022/12/04 08:50:09;;;;;;;20.20;11.10;;;4.20;92.10;;;;;;5017902;28;20437;-75
2022/12/04 08:52:36;;;;;;;19.20;11.40;;;4.30;92.30;;;;;;5017215;28;20437;-75
2022/12/04 08:55:02;;;;;;;14.57;10.03;;;4.40;92.40;;;;;;5016765;28;20478;-76
2022/12/04 08:57:29;;;;;;;18.77;11.90;;;4.50;92.50;;;;;;5016845;28;20460;-75
2022/12/04 08:59:56;;;;;;;15.87;10.87;;;4.60;92.40;;;;;;5016470;28;20489;-76
2022/12/04 09:02:23;;;;;;;14.93;10.13;;;4.70;92.30;;;;;;5016886;28;20466;-76
2022/12/04 09:04:51;;;;;;;15.57;10.83;;;4.80;92.10;;;;;;5016694;28;20474;-75
2022/12/04 09:07:17;;;;;;;17.77;11.53;;;4.90;92.00;;;;;;5017097;28;20449;-76
2022/12/04 09:09:44;;;;;;;17.20;11.83;;;4.90;91.90;;;;;;5016246;28;20452;-75
2022/12/04 09:12:11;;;;;;;13.73;10.53;;;4.90;91.80;;;;;;5016586;28;20452;-76
2022/12/04 09:14:38;;;;;;;16.37;11.47;;;4.90;91.70;;;;;;5016495;28;20481;-76
2022/12/04 09:17:04;;;;;;;15.07;10.60;;;5.00;91.60;;;;;;5016565;28;20882;-76
2022/12/04 09:19:31;;;;;;;16.17;11.80;;;5.00;91.50;;;;;;5016398;28;20493;-77
2022/12/04 09:21:59;;;;;;;15.07;10.87;;;5.10;91.40;;;;;;5016436;28;20449;-76
2022/12/04 09:24:27;;;;;;;15.27;11.57;;;5.20;91.30;;;;;;5016227;28;20468;-75
2022/12/04 09:26:53;;;;;;;17.20;11.37;;;5.20;91.10;;;;;;5016154;28;20473;-75
2022/12/04 09:29:20;;;;;;;15.43;10.93;;;5.30;91.10;;;;;;5016305;28;20446;-76
2022/12/04 09:31:47;;;;;;;13.23;10.13;;;5.30;90.90;;;;;;5016129;28;20477;-76
2022/12/04 09:34:13;;;;;;;15.57;11.00;;;5.30;90.80;;;;;;5016005;28;20551;-76
2022/12/04 09:36:40;;;;;;;19.57;13.00;;;5.40;90.80;;;;;;5016103;28;20459;-76
2022/12/04 09:39:10;;;;;;;15.50;11.23;;;5.40;90.70;;;;;;5016073;28;20492;-75
2022/12/04 09:42:02;;;;;;;16.90;11.50;;;5.40;90.60;;;;;;5015910;28;20439;-76
2022/12/04 09:44:35;;;;;;;16.53;12.00;;;5.50;90.60;;;;;;5015966;28;20513;-76
2022/12/04 09:47:04;;;;;;;15.90;12.40;;;5.50;90.40;;;;;;5015979;28;20447;-75
2022/12/04 09:49:36;;;;;;;17.17;12.10;;;5.50;90.40;;;;;;5015295;28;20469;-76
2022/12/04 09:52:09;;;;;;;16.07;12.00;;;5.50;90.30;;;;;;5015764;28;20456;-76
2022/12/04 09:54:42;;;;;;;16.73;11.70;;;5.50;90.30;;;;;;5015289;28;21005;-76
2022/12/04 09:57:15;;;;;;;18.17;11.90;;;5.50;90.20;;;;;;5015706;28;20437;-76
2022/12/04 09:59:43;;;;;;;16.73;12.50;;;5.50;90.20;;;;;;5015607;28;20492;-76
2022/12/04 10:02:34;;;;;;;15.80;11.17;;;5.50;90.10;;;;;;5015527;28;20459;-76
2022/12/04 10:05:02;;;;;;;17.47;11.87;;;5.50;90.00;;;;;;5015483;28;20473;-76
2022/12/04 10:07:33;;;;;;;16.93;11.33;;;5.50;90.00;;;;;;5015488;28;20453;-76
2022/12/04 10:10:05;;;;;;;15.03;11.07;;;5.50;90.00;;;;;;5015749;28;20462;-76
2022/12/04 10:12:38;;;;;;;14.77;11.10;;;5.50;89.70;;;;;;5015555;28;20860;-76
2022/12/04 10:15:20;;;;;;;14.37;10.60;;;5.50;89.40;;;;;;5015150;28;20471;-76
2022/12/04 10:18:08;;;;;;;15.00;11.13;;;5.50;89.50;;;;;;5015208;28;20457;-76
2022/12/04 10:20:48;;;;;;;15.33;11.00;;;5.50;89.30;;;;;;5015444;28;20224;-76
2022/12/04 10:23:24;;;;;;;15.67;10.93;;;5.60;89.00;;;;;;5015327;28;20856;-75
2022/12/04 10:25:54;;;;;;;14.20;10.10;;;5.50;88.30;;;;;;5014926;28;20851;-76
2022/12/04 10:28:26;;;;;;;16.07;10.73;;;5.50;88.30;;;;;;5014922;28;20915;-76
2022/12/04 10:30:57;;;;;;;12.53;10.20;;;5.60;88.40;;;;;;5015443;28;20439;-76
2022/12/04 10:33:30;;;;;;;13.20;10.40;;;5.60;88.20;;;;;;5015578;28;20467;-76
2022/12/04 10:35:57;;;;;;;12.50;10.00;;;5.60;87.90;;;;;;5015692;28;20441;-76
2022/12/04 10:38:34;;;;;;;13.47;11.50;;;5.60;87.80;;;;;;5015359;28;20455;-76
2022/12/04 10:41:06;;;;;;;14.33;10.93;;;5.60;87.90;;;;;;5015225;28;20481;-76
2022/12/04 10:43:41;;;;;;;15.53;11.10;;;5.60;87.90;;;;;;5015702;28;20522;-76
2022/12/04 10:46:12;;;;;;;14.13;10.30;;;5.60;87.80;;;;;;5015849;28;20444;-76
2022/12/04 10:48:41;;;;;;;14.00;10.30;;;5.60;87.40;;;;;;5015259;28;20803;-76
2022/12/04 10:51:14;;;;;;;15.50;10.57;;;5.60;87.60;;;;;;5004601;28;20466;-75
2022/12/04 10:53:41;;;;;;;12.40;9.17;;;5.60;87.40;;;;;;4996374;28;20471;-75
2022/12/04 10:56:11;;;;;;;11.97;9.63;;;5.50;87.80;;;;;;4995856;28;20942;-75
2022/12/04 10:58:38;;;;;;;11.60;10.37;;;5.50;87.70;;;;;;4995669;28;20439;-75
2022/12/04 11:01:06;;;;;;;13.00;9.67;;;5.60;87.50;;;;;;4995289;28;20491;-75
2022/12/04 11:03:34;;;;;;;12.07;9.73;;;5.60;87.40;;;;;;4995239;28;20986;-76
2022/12/04 11:06:04;;;;;;;13.27;10.50;;;5.60;87.40;;;;;;4995570;28;20458;-76
2022/12/04 11:08:36;;;;;;;13.57;11.50;;;5.60;87.10;;;;;;4995318;28;20443;-76
2022/12/04 11:11:06;;;;;;;12.73;10.17;;;5.60;87.10;;;;;;4994905;28;20934;-75
2022/12/04 11:13:35;;;;;;;13.90;10.63;;;5.60;87.10;;;;;;4995000;28;20482;-76
2022/12/04 11:16:05;;;;;;;15.53;10.33;;;5.60;87.20;;;;;;4995938;28;20466;-76
2022/12/04 11:18:34;;;;;;;12.43;10.07;;;5.60;87.10;;;;;;4995006;28;20435;-76
2022/12/04 11:21:03;;;;;;;12.57;9.43;;;5.60;87.00;;;;;;4994054;28;20509;-76
2022/12/04 11:23:33;;;;;;;12.60;9.77;;;5.60;86.80;;;;;;4994664;28;20475;-76
2022/12/04 11:26:01;;;;;;;13.70;10.30;;;5.60;86.90;;;;;;4994352;28;20486;-76
2022/12/04 11:28:30;;;;;;;12.50;10.07;;;5.70;87.10;;;;;;4994829;28;20449;-76
2022/12/04 11:31:02;;;;;;;14.37;10.53;;;5.70;87.10;;;;;;4994640;28;20904;-76
2022/12/04 11:33:33;;;;;;;13.40;10.43;;;5.70;87.10;;;;;;5007261;28;20512;-74
2022/12/04 11:36:02;;;;;;;11.67;8.87;;;5.70;87.10;;;;;;5014608;28;20458;-75
2022/12/04 11:38:31;;;;;;;13.70;9.73;;;5.70;87.00;;;;;;5013754;28;20951;-76
2022/12/04 11:40:59;;;;;;;11.63;9.17;;;5.80;87.20;;;;;;5007261;28;20486;-75
2022/12/04 11:43:28;;;;;;;14.93;9.60;;;5.70;87.20;;;;;;4994351;28;20497;-75
2022/12/04 11:45:56;;;;;;;11.33;9.73;;;5.80;87.30;;;;;;4994524;28;20471;-75
2022/12/04 11:48:24;;;;;;;11.70;9.73;;;5.80;87.20;;;;;;4993830;28;20963;-76
2022/12/04 11:51:01;;;;;;;12.70;9.70;;;5.80;87.20;;;;;;4994349;28;20442;-75
2022/12/04 11:53:42;;;;;;;12.70;9.60;;;5.80;87.00;;;;;;4994014;28;20478;-75
2022/12/04 11:56:19;;;;;;;13.10;10.23;;;5.80;87.10;;;;;;4994134;28;20523;-76
2022/12/04 11:59:10;;;;;;;14.43;10.20;;;5.80;87.10;;;;;;4994250;28;20431;-76
2022/12/04 12:01:45;;;;;;;12.87;9.87;;;5.80;86.90;;;;;;5009668;28;20476;-75
2022/12/04 12:04:42;;;;;;;12.33;9.33;;;5.80;86.90;;;;;;4993739;28;20982;-76
2022/12/04 12:07:22;;;;;;;13.07;10.40;;;5.80;86.90;;;;;;4993682;28;20543;-76
2022/12/04 12:09:55;;;;;;;11.20;9.40;;;5.80;86.80;;;;;;4994086;28;20425;-76
2022/12/04 12:12:30;;;;;;;13.27;10.83;;;5.80;86.80;;;;;;4995292;28;20432;-75
2022/12/04 12:15:04;;;;;;;11.07;9.80;;;5.80;86.80;;;;;;4997882;28;21021;-76
2022/12/04 12:17:39;;;;;;;12.07;10.00;;;5.80;86.70;;;;;;4998627;28;20435;-76
2022/12/04 12:20:21;;;;;;;13.60;10.60;;;5.80;86.90;;;;;;4997863;28;20474;-76
2022/12/04 12:23:06;;;;;;;14.07;11.30;;;5.90;87.20;;;;;;4997816;28;20470;-76
2022/12/04 12:25:41;;;;;;;12.93;10.23;;;5.80;87.10;;;;;;4997978;28;20840;-75
2022/12/04 12:28:21;;;;;;;12.83;10.80;;;5.90;87.20;;;;;;4998024;28;20779;-76
2022/12/04 12:31:05;;;;;;;14.37;10.67;;;5.90;87.00;;;;;;4998127;28;20462;-75
2022/12/04 12:33:46;;;;;;;15.90;9.60;;;5.90;86.80;;;;;;4997829;28;20466;-76
2022/12/04 12:36:15;;;;;;;15.73;11.23;;;5.90;86.80;;;;;;4997778;28;20465;-76
2022/12/04 12:38:47;;;;;;;12.37;9.87;;;5.90;87.00;;;;;;4997624;28;20942;-76
2022/12/04 12:41:17;;;;;;;11.93;10.37;;;5.90;86.90;;;;;;4997763;28;20472;-76
2022/12/04 12:43:48;;;;;;;15.67;13.00;;;5.90;87.00;;;;;;4998344;28;20478;-76
2022/12/04 12:46:20;;;;;;;13.20;10.57;;;5.90;87.00;;;;;;4998137;28;20456;-75
2022/12/04 12:48:57;;;;;;;15.07;10.40;;;5.90;86.80;;;;;;4997523;28;20435;-76
2022/12/04 12:51:32;;;;;;;13.70;9.87;;;5.90;86.70;;;;;;4997276;28;20453;-76
2022/12/04 12:54:09;;;;;;;12.30;9.17;;;5.90;86.40;;;;;;4997322;28;20470;-76
2022/12/04 12:56:40;;;;;;;11.70;9.57;;;5.90;86.20;;;;;;4997211;28;20432;-76
2022/12/04 12:59:14;;;;;;;11.37;9.50;;;5.90;86.30;;;;;;4997774;28;20444;-76
2022/12/04 13:01:46;;;;;;;12.67;10.00;;;5.90;86.30;;;;;;4997559;28;20474;-76
2022/12/04 13:04:19;;;;;;;12.30;9.77;;;5.90;86.10;;;;;;4997734;28;20827;-75